createdAt,value
2022-08-10T00:01:13.889Z,1.10
2022-08-10T00:04:21.643Z,1.30
2022-08-10T00:07:24.631Z,1.00
2022-08-10T00:10:27.841Z,1.30
2022-08-10T00:13:30.531Z,1.40
2022-08-10T00:16:33.216Z,1.02
2022-08-10T00:20:02.644Z,0.93
2022-08-10T00:23:00.093Z,1.25
2022-08-10T00:26:02.924Z,1.40
2022-08-10T00:29:05.500Z,1.10
2022-08-10T00:32:12.044Z,1.10
2022-08-10T00:35:16.115Z,1.13
2022-08-10T00:38:18.778Z,0.85
2022-08-10T00:41:21.424Z,1.25
2022-08-10T00:44:26.499Z,0.93
2022-08-10T00:47:36.168Z,1.38
2022-08-10T00:50:41.642Z,1.20
2022-08-10T00:53:44.363Z,1.40
2022-08-10T00:57:17.575Z,0.95
2022-08-10T01:00:10.560Z,1.45
2022-08-10T01:03:13.216Z,0.95
2022-08-10T01:06:23.362Z,1.20
2022-08-10T01:09:30.838Z,1.10
2022-08-10T01:12:47.134Z,1.15
2022-08-10T01:15:55.270Z,1.25
2022-08-10T01:19:01.770Z,1.20
2022-08-10T01:22:21.337Z,1.23
2022-08-10T01:26:10.903Z,1.10
2022-08-10T01:29:09.227Z,1.25
2022-08-10T01:32:14.874Z,1.40
2022-08-10T01:35:20.872Z,1.17
2022-08-10T01:38:24.893Z,1.33
2022-08-10T01:41:29.215Z,1.30
2022-08-10T01:44:50.743Z,1.20
2022-08-10T01:48:16.424Z,1.02
2022-08-10T01:51:22.784Z,1.30
2022-08-10T01:54:27.212Z,1.13
2022-08-10T01:57:32.252Z,1.13
2022-08-10T02:00:37.084Z,1.15
2022-08-10T02:04:03.725Z,1.05
2022-08-10T02:07:06.763Z,1.20
2022-08-10T02:10:11.349Z,0.98
2022-08-10T02:13:15.945Z,1.00
2022-08-10T02:16:22.542Z,1.20
2022-08-10T02:19:27.976Z,1.00
2022-08-10T02:22:45.643Z,1.15
2022-08-10T02:25:49.000Z,1.13
2022-08-10T02:28:52.593Z,1.10
2022-08-10T02:31:55.586Z,1.00
2022-08-10T02:35:01.598Z,1.40
2022-08-10T02:38:07.210Z,1.00
2022-08-10T02:45:13.465Z,1.30
2022-08-10T02:45:22.444Z,1.10
2022-08-10T02:48:14.563Z,1.05
2022-08-10T02:52:07.816Z,1.40
2022-08-10T02:54:49.450Z,1.23
2022-08-10T02:58:17.345Z,1.15
2022-08-10T03:01:22.191Z,1.65
2022-08-10T03:04:56.161Z,1.30
2022-08-10T03:07:52.901Z,1.20
2022-08-10T03:10:56.644Z,1.55
2022-08-10T03:14:01.023Z,1.40
2022-08-10T03:17:04.364Z,1.30
2022-08-10T03:20:37.374Z,1.40
2022-08-10T03:23:32.258Z,1.30
2022-08-10T03:26:35.743Z,1.30
2022-08-10T03:30:31.881Z,1.10
2022-08-10T03:33:02.168Z,1.35
2022-08-10T03:36:41.691Z,1.33
2022-08-10T03:39:38.117Z,1.25
2022-08-10T03:42:42.717Z,1.48
2022-08-10T03:45:49.421Z,1.50
2022-08-10T03:49:00.885Z,2.05
2022-08-10T03:52:06.311Z,1.80
2022-08-10T03:55:10.764Z,1.65
2022-08-10T03:58:13.728Z,1.77
2022-08-10T04:01:16.678Z,1.50
2022-08-10T04:04:24.257Z,1.83
2022-08-10T04:07:27.628Z,1.77
2022-08-10T04:10:31.753Z,1.90
2022-08-10T04:13:34.457Z,1.92
2022-08-10T04:16:37.183Z,1.90
2022-08-10T04:19:42.961Z,1.90
2022-08-10T04:22:46.878Z,2.10
2022-08-10T04:25:51.698Z,1.80
2022-08-10T04:28:54.639Z,1.70
2022-08-10T04:31:57.820Z,2.25
2022-08-10T04:35:00.987Z,2.13
2022-08-10T04:38:04.076Z,2.25
2022-08-10T04:41:08.475Z,2.28
2022-08-10T04:44:11.171Z,2.15
2022-08-10T04:47:16.896Z,2.13
2022-08-10T04:50:38.031Z,2.13
2022-08-10T04:54:04.382Z,2.45
2022-08-10T04:57:05.700Z,2.40
2022-08-10T05:00:17.992Z,2.55
2022-08-10T05:03:21.999Z,2.78
2022-08-10T05:06:24.941Z,3.10
2022-08-10T05:09:27.618Z,3.28
2022-08-10T05:12:31.778Z,2.92
2022-08-10T05:15:34.408Z,2.50
2022-08-10T05:18:37.172Z,2.85
2022-08-10T05:22:02.463Z,2.45
2022-08-10T05:25:02.563Z,2.38
2022-08-10T05:28:07.076Z,3.10
2022-08-10T05:31:09.871Z,2.95
2022-08-10T05:34:20.384Z,2.78
2022-08-10T05:38:10.561Z,2.65
2022-08-10T05:40:48.037Z,2.55
2022-08-10T05:43:52.510Z,2.67
2022-08-10T05:46:55.233Z,2.83
2022-08-10T05:49:58.150Z,2.78
2022-08-10T05:53:23.094Z,2.47
2022-08-10T05:56:23.558Z,2.17
2022-08-10T06:00:12.643Z,2.53
2022-08-10T06:02:54.696Z,2.63
2022-08-10T06:05:59.445Z,2.70
2022-08-10T06:09:02.318Z,2.67
2022-08-10T06:12:27.763Z,2.67
2022-08-10T06:15:52.136Z,2.30
2022-08-10T06:18:51.931Z,1.92
2022-08-10T06:22:01.324Z,2.15
2022-08-10T06:25:37.848Z,1.92
2022-08-10T06:28:30.735Z,2.28
2022-08-10T06:31:48.089Z,1.63
2022-08-10T06:34:54.453Z,2.10
2022-08-10T06:37:58.488Z,1.77
2022-08-10T06:41:02.550Z,1.70
2022-08-10T06:44:08.044Z,1.90
2022-08-10T06:47:13.881Z,1.90
2022-08-10T06:50:34.575Z,1.40
2022-08-10T06:53:52.735Z,1.58
2022-08-10T06:57:17.243Z,1.75
2022-08-10T07:00:21.016Z,1.38
2022-08-10T07:03:27.465Z,1.60
2022-08-10T07:06:30.584Z,1.35
2022-08-10T07:09:36.400Z,1.25
2022-08-10T07:12:48.069Z,1.30
2022-08-10T07:15:59.684Z,1.00
2022-08-10T07:19:09.673Z,1.10
2022-08-10T07:23:05.832Z,1.20
2022-08-10T07:25:37.573Z,1.30
2022-08-10T07:28:43.934Z,1.05
2022-08-10T07:31:55.442Z,0.95
2022-08-10T07:35:02.480Z,1.02
2022-08-10T07:38:07.827Z,1.02
2022-08-10T07:41:11.651Z,0.70
2022-08-10T07:44:16.203Z,1.02
2022-08-10T07:47:52.396Z,1.30
2022-08-10T07:50:48.744Z,0.93
2022-08-10T07:53:53.603Z,1.00
2022-08-10T07:56:58.573Z,1.35
2022-08-10T08:00:04.508Z,0.98
2022-08-10T08:03:15.104Z,0.80
2022-08-10T08:06:19.345Z,1.08
2022-08-10T08:09:23.081Z,0.77
2022-08-10T08:12:36.629Z,0.82
2022-08-10T08:20:46.919Z,0.77
2022-08-10T08:24:06.309Z,0.90
2022-08-10T08:27:19.666Z,0.70
2022-08-10T08:30:26.788Z,1.00
2022-08-10T08:33:43.675Z,0.98
2022-08-10T08:36:59.242Z,0.90
2022-08-10T08:40:12.892Z,1.05
2022-08-10T08:46:59.194Z,0.90
2022-08-10T08:50:10.250Z,0.82
2022-08-10T08:53:22.908Z,1.10
2022-08-10T08:56:31.166Z,0.95
2022-08-10T08:59:43.589Z,0.90
2022-08-10T09:02:56.093Z,1.10
2022-08-10T09:06:05.318Z,0.85
2022-08-10T09:09:16.964Z,0.70
2022-08-10T09:12:24.382Z,0.90
2022-08-10T09:15:40.019Z,0.73
2022-08-10T09:18:48.600Z,0.80
2022-08-10T09:22:12.989Z,1.00
2022-08-10T09:25:18.901Z,0.90
2022-08-10T09:28:27.431Z,0.70
2022-08-10T09:31:36.556Z,1.00
2022-08-10T09:36:25.987Z,0.82
2022-08-10T09:38:18.284Z,0.60
2022-08-10T09:41:27.196Z,1.02
2022-08-10T09:44:58.440Z,0.80
2022-08-10T09:48:07.708Z,1.00
2022-08-10T09:51:42.144Z,0.90
2022-08-10T09:55:22.058Z,0.73
2022-08-10T09:58:49.387Z,0.80
2022-08-10T10:02:02.814Z,0.80
2022-08-10T10:05:13.476Z,0.65
2022-08-10T10:08:21.492Z,0.90
2022-08-10T10:11:27.572Z,0.90
2022-08-10T10:14:36.147Z,0.70
2022-08-10T10:17:48.021Z,1.10
2022-08-10T10:21:00.872Z,0.90
2022-08-10T10:24:21.239Z,0.63
2022-08-10T10:27:33.781Z,1.05
2022-08-10T10:30:39.791Z,0.73
2022-08-10T10:33:51.490Z,0.80
2022-08-10T10:36:55.098Z,0.90
2022-08-10T10:40:03.899Z,0.60
2022-08-10T10:43:11.257Z,1.00
2022-08-10T10:46:23.253Z,1.30
2022-08-10T10:49:39.873Z,0.75
2022-08-10T10:53:04.176Z,0.77
2022-08-10T10:56:14.795Z,1.10
2022-08-10T10:59:53.745Z,0.63
2022-08-10T11:02:54.339Z,0.70
2022-08-10T11:06:09.796Z,0.88
2022-08-10T11:10:09.190Z,0.60
2022-08-10T11:12:45.773Z,0.80
2022-08-10T11:15:54.819Z,0.80
2022-08-10T11:19:00.896Z,0.85
2022-08-10T11:22:11.345Z,0.80
2022-08-10T11:25:19.507Z,0.85
2022-08-10T11:28:30.026Z,0.98
2022-08-10T11:31:44.277Z,0.85
2022-08-10T11:35:11.128Z,0.80
2022-08-10T11:38:30.894Z,0.68
2022-08-10T11:42:10.111Z,1.08
2022-08-10T11:45:10.605Z,0.70
2022-08-10T11:48:54.580Z,0.80
2022-08-10T11:51:44.870Z,0.52
2022-08-10T11:54:55.948Z,0.70
2022-08-10T11:58:01.633Z,0.80
2022-08-10T12:01:06.170Z,0.80
2022-08-10T12:04:11.965Z,0.80
2022-08-10T12:08:54.538Z,0.60
2022-08-10T12:10:41.169Z,0.80
2022-08-10T12:14:10.755Z,0.77
2022-08-10T12:17:14.073Z,0.77
2022-08-10T12:20:18.688Z,0.70
2022-08-10T12:23:25.232Z,0.85
2022-08-10T12:26:33.785Z,0.90
2022-08-10T12:29:43.527Z,0.77
2022-08-10T12:32:52.193Z,0.95
2022-08-10T12:36:17.511Z,0.70
2022-08-10T12:39:23.493Z,0.73
2022-08-10T12:42:38.916Z,0.90
2022-08-10T12:45:50.018Z,0.85
2022-08-10T12:48:58.026Z,0.95
2022-08-10T12:52:04.032Z,0.98
2022-08-10T12:55:09.325Z,0.82
2022-08-10T12:58:59.752Z,0.80
2022-08-10T13:02:08.688Z,0.82
2022-08-10T13:05:03.221Z,0.90
2022-08-10T13:08:38.051Z,0.70
2022-08-10T13:12:36.796Z,0.90
2022-08-10T13:15:47.688Z,0.80
2022-08-10T13:18:35.891Z,0.88
2022-08-10T13:21:39.686Z,0.88
2022-08-10T13:24:43.996Z,0.77
2022-08-10T13:28:01.130Z,0.75
2022-08-10T13:31:11.605Z,1.00
2022-08-10T13:34:40.000Z,0.73
2022-08-10T13:37:45.263Z,0.80
2022-08-10T13:40:48.925Z,0.90
2022-08-10T13:43:53.322Z,1.00
2022-08-10T13:46:58.330Z,1.00
2022-08-10T13:50:03.968Z,0.82
2022-08-10T13:53:14.302Z,0.90
2022-08-10T13:56:17.989Z,0.70
2022-08-10T13:59:21.324Z,0.60
2022-08-10T14:02:27.901Z,1.08
2022-08-10T14:09:17.777Z,0.70
2022-08-10T14:12:32.820Z,0.73
2022-08-10T14:16:04.935Z,1.00
2022-08-10T14:19:23.386Z,0.73
2022-08-10T14:22:32.849Z,1.00
2022-08-10T14:25:47.570Z,1.05
2022-08-10T14:28:52.380Z,0.88
2022-08-10T14:32:01.392Z,0.70
2022-08-10T14:36:20.717Z,0.70
2022-08-10T14:38:34.061Z,0.95
2022-08-10T14:42:01.748Z,0.82
2022-08-10T14:45:09.969Z,0.68
2022-08-10T14:48:38.211Z,0.75
2022-08-10T14:56:11.381Z,0.68
2022-08-10T14:59:17.445Z,0.82
2022-08-10T15:02:40.937Z,0.98
2022-08-10T15:05:45.978Z,0.90
2022-08-10T15:08:50.811Z,0.85
2022-08-10T15:12:13.613Z,0.70
2022-08-10T15:15:28.144Z,1.05
2022-08-10T15:18:31.686Z,0.90
2022-08-10T15:21:42.627Z,0.80
2022-08-10T15:25:06.742Z,0.82
2022-08-10T15:28:23.227Z,0.70
2022-08-10T15:31:59.818Z,0.60
2022-08-10T15:35:20.883Z,0.90
2022-08-10T15:38:34.962Z,0.65
2022-08-10T15:41:59.040Z,0.68
2022-08-10T15:45:02.987Z,0.88
2022-08-10T15:48:06.477Z,0.65
2022-08-10T15:51:13.757Z,0.82
2022-08-10T15:54:33.441Z,0.80
2022-08-10T15:57:40.056Z,0.80
2022-08-10T16:00:46.725Z,0.70
2022-08-10T16:03:54.589Z,0.50
2022-08-10T16:07:11.549Z,0.70
2022-08-10T16:10:25.844Z,0.70
2022-08-10T16:13:50.334Z,0.57
2022-08-10T16:16:56.755Z,0.63
2022-08-10T16:20:00.478Z,0.63
2022-08-10T16:23:05.059Z,0.68
2022-08-10T16:26:17.431Z,0.68
2022-08-10T16:29:24.893Z,0.55
2022-08-10T16:32:28.287Z,0.80
2022-08-10T16:35:32.520Z,0.60
2022-08-10T16:38:38.721Z,0.63
2022-08-10T16:42:03.740Z,0.75
2022-08-10T16:45:08.227Z,0.63
2022-08-10T16:52:04.599Z,0.77
2022-08-10T16:55:23.811Z,0.82
2022-08-10T16:58:34.635Z,0.98
2022-08-10T17:01:51.668Z,0.80
2022-08-10T17:06:01.611Z,0.77
2022-08-10T17:09:16.903Z,1.20
2022-08-10T17:12:21.077Z,1.10
2022-08-10T17:15:26.422Z,1.00
2022-08-10T17:18:32.064Z,0.80
2022-08-10T17:21:36.767Z,0.95
2022-08-10T17:24:46.367Z,0.93
2022-08-10T17:28:05.491Z,0.90
2022-08-10T17:31:39.758Z,0.98
2022-08-10T17:39:44.447Z,0.88
2022-08-10T17:42:48.224Z,1.20
2022-08-10T17:45:51.858Z,1.00
2022-08-10T17:48:55.752Z,1.00
2022-08-10T17:51:58.826Z,1.00
2022-08-10T17:55:04.797Z,0.82
2022-08-10T17:58:12.589Z,1.15
2022-08-10T18:01:41.053Z,0.77
2022-08-10T18:04:46.943Z,0.85
2022-08-10T18:07:52.619Z,0.90
2022-08-10T18:10:58.850Z,1.10
2022-08-10T18:14:02.710Z,0.77
2022-08-10T18:17:10.566Z,1.23
2022-08-10T18:20:14.263Z,0.90
2022-08-10T18:23:16.989Z,1.02
2022-08-10T18:26:21.895Z,0.88
2022-08-10T18:29:27.474Z,2.40
2022-08-10T18:32:33.868Z,1.90
2022-08-10T18:35:37.378Z,1.17
2022-08-10T18:38:41.143Z,0.88
2022-08-10T18:42:00.379Z,1.40
2022-08-10T18:45:09.378Z,1.40
2022-08-10T18:48:15.984Z,1.20
2022-08-10T18:51:24.568Z,0.90
2022-08-10T18:54:39.611Z,0.88
2022-08-10T18:57:59.248Z,0.90
2022-08-10T19:05:30.625Z,0.98
2022-08-10T19:09:03.569Z,0.90
2022-08-10T19:12:30.231Z,1.10
2022-08-10T19:15:40.503Z,0.75
2022-08-10T19:18:48.498Z,1.00
2022-08-10T19:21:57.071Z,1.35
2022-08-10T19:25:08.175Z,1.10
2022-08-10T19:28:14.591Z,1.27
2022-08-10T19:31:22.146Z,1.17
2022-08-10T19:34:39.282Z,1.08
2022-08-10T19:37:44.023Z,1.20
2022-08-10T19:41:10.212Z,1.20
2022-08-10T19:44:16.151Z,1.02
2022-08-10T19:47:25.075Z,1.05
2022-08-10T19:50:29.509Z,1.10
2022-08-10T19:53:37.302Z,1.00
2022-08-10T19:56:44.663Z,1.48
2022-08-10T20:00:16.305Z,1.00
2022-08-10T20:03:21.965Z,0.90
2022-08-10T20:06:25.903Z,1.02
2022-08-10T20:09:31.534Z,1.20
2022-08-10T20:12:39.128Z,0.85
2022-08-10T20:15:43.616Z,0.90
2022-08-10T20:18:50.065Z,1.20
2022-08-10T20:21:55.515Z,1.50
2022-08-10T20:25:01.701Z,1.30
2022-08-10T20:28:06.069Z,0.82
2022-08-10T20:31:10.294Z,1.20
2022-08-10T20:34:22.485Z,1.20
2022-08-10T20:38:03.137Z,1.00
2022-08-10T20:40:54.940Z,1.00
2022-08-10T20:44:01.214Z,1.20
2022-08-10T20:47:09.668Z,1.08
2022-08-10T20:50:18.427Z,1.10
2022-08-10T20:53:25.350Z,1.10
2022-08-10T20:56:34.433Z,1.40
2022-08-10T21:00:02.527Z,1.20
2022-08-10T21:03:21.191Z,1.17
2022-08-10T21:06:43.228Z,0.80
2022-08-10T21:09:52.931Z,1.48
2022-08-10T21:12:59.287Z,1.35
2022-08-10T21:16:05.028Z,1.50
2022-08-10T21:22:54.079Z,1.08
2022-08-10T21:25:41.817Z,0.90
2022-08-10T21:26:07.333Z,1.00
2022-08-10T21:29:37.773Z,1.23
2022-08-10T21:32:48.168Z,1.17
2022-08-10T21:35:52.470Z,1.20
2022-08-10T21:38:57.924Z,1.00
2022-08-10T21:42:26.855Z,1.10
2022-08-10T21:46:02.511Z,1.20
2022-08-10T21:49:27.339Z,1.10
2022-08-10T21:53:04.268Z,1.02
2022-08-10T21:56:29.088Z,1.40
2022-08-10T21:59:56.439Z,1.13
2022-08-10T22:03:17.992Z,0.88
2022-08-10T22:06:39.933Z,1.00
2022-08-10T22:10:14.050Z,1.05
2022-08-10T22:13:38.724Z,1.15
2022-08-10T22:17:04.562Z,1.63
2022-08-10T22:20:35.253Z,1.15
2022-08-10T22:24:16.959Z,1.20
2022-08-10T22:27:46.191Z,1.30
2022-08-10T22:31:31.137Z,1.27
2022-08-10T22:35:10.139Z,1.10
2022-08-10T22:38:36.063Z,1.10
2022-08-10T22:42:04.252Z,1.10
2022-08-10T22:45:26.392Z,1.20
2022-08-10T22:48:47.958Z,1.10
2022-08-10T22:51:57.399Z,1.10
2022-08-10T22:55:20.582Z,1.30
2022-08-10T22:58:39.822Z,1.10
2022-08-10T23:02:08.093Z,1.20
2022-08-10T23:05:11.651Z,0.95
2022-08-10T23:08:29.414Z,1.10
2022-08-10T23:11:36.755Z,1.35
2022-08-10T23:14:40.293Z,1.00
2022-08-10T23:18:06.262Z,1.00
2022-08-10T23:21:13.352Z,1.42
2022-08-10T23:24:17.344Z,1.42
2022-08-10T23:27:38.628Z,1.30
2022-08-10T23:30:45.190Z,1.25
2022-08-10T23:33:54.477Z,1.20
2022-08-10T23:37:00.150Z,1.40
2022-08-10T23:40:07.989Z,1.27
2022-08-10T23:43:15.402Z,1.50
2022-08-10T23:46:18.647Z,1.33
2022-08-10T23:49:21.953Z,1.15
2022-08-10T23:52:29.463Z,1.17
2022-08-10T23:55:48.969Z,1.30
2022-08-10T23:59:51.941Z,1.40
